Time;durP1;ratioP1;P1;durP2;ratioP2;P2;SDS_P1;SDS_P2;PMS_P1;PMS_P2;Temp;Humidity;BMP_temperature;BMP_pressure;BME280_temperature;BME280_humidity;BME280_pressure;Samples;Min_cycle;Max_cycle;Signal;HPM_P1;HPM_P2
2023/06/18 00:02:03;;;;;;;0.32;0.32;;;23.00;55.20;;;23.52;39.02;94814.31;5048294;28;20186;-41
2023/06/18 00:04:31;;;;;;;0.40;0.40;;;23.00;55.20;;;23.50;38.95;94808.47;5031578;28;20188;-41
2023/06/18 00:06:58;;;;;;;0.30;0.30;;;22.90;55.20;;;23.47;39.22;94809.81;5032446;28;20212;-41
2023/06/18 00:09:26;;;;;;;0.40;0.40;;;22.90;55.20;;;23.46;39.12;94818.09;5032283;28;20241;-41
2023/06/18 00:11:52;;;;;;;0.40;0.40;;;22.90;55.20;;;23.44;39.09;94812.25;5032483;28;20614;-42
2023/06/18 00:14:20;;;;;;;0.30;0.30;;;22.90;55.30;;;23.41;39.18;94813.59;5032272;28;20192;-41
2023/06/18 00:16:50;;;;;;;0.30;0.30;;;22.90;55.30;;;23.39;39.02;94802.38;5032512;28;20197;-41
2023/06/18 00:19:18;;;;;;;0.38;0.38;;;22.90;55.40;;;23.38;39.08;94800.75;5032428;28;20201;-41
2023/06/18 00:21:46;;;;;;;0.30;0.30;;;22.90;56.70;;;23.36;39.21;94800.22;5032002;28;20216;-42
2023/06/18 00:24:13;;;;;;;0.30;0.30;;;22.80;55.40;;;23.35;39.35;94809.31;5014932;28;20251;-42
2023/06/18 00:26:40;;;;;;;0.30;0.30;;;22.80;55.40;;;23.32;39.39;94807.22;5031493;28;20202;-41
2023/06/18 00:29:07;;;;;;;0.40;0.40;;;22.80;55.50;;;23.29;39.30;94803.22;5032081;28;20189;-41
2023/06/18 00:31:34;;;;;;;0.30;0.30;;;22.80;55.60;;;23.28;39.39;94809.63;5047653;28;20212;-41
2023/06/18 00:34:06;;;;;;;0.30;0.30;;;22.70;55.50;;;23.27;39.31;94812.59;5030684;28;20204;-41
2023/06/18 00:36:38;;;;;;;0.40;0.40;;;22.70;55.60;;;23.25;39.75;94802.16;5032242;28;20185;-41
2023/06/18 00:39:07;;;;;;;0.32;0.32;;;22.70;55.50;;;23.23;39.48;94798.16;5047608;28;20565;-41
2023/06/18 00:41:34;;;;;;;0.38;0.38;;;22.70;55.60;;;23.21;39.58;94798.44;5030768;28;20650;-42
2023/06/18 00:44:03;;;;;;;0.40;0.40;;;22.70;55.70;;;23.20;39.55;94799.50;5031841;28;20192;-42
2023/06/18 00:46:30;;;;;;;0.30;0.30;;;22.70;55.80;;;23.17;39.79;94797.38;5031852;28;20188;-41
2023/06/18 00:48:58;;;;;;;0.30;0.30;;;22.70;55.80;;;23.16;39.84;94796.56;5031828;28;20224;-41
2023/06/18 00:51:29;;;;;;;0.30;0.30;;;22.70;55.90;;;23.14;39.68;94793.34;5014328;28;20232;-41
2023/06/18 00:53:56;;;;;;;0.30;0.30;;;22.70;55.90;;;23.14;39.76;94789.88;5031935;28;20542;-43
2023/06/18 00:56:25;;;;;;;0.30;0.30;;;22.60;55.90;;;23.11;39.97;94790.44;5031980;28;20208;-41
2023/06/18 00:58:52;;;;;;;0.30;0.30;;;22.60;56.00;;;23.11;39.97;94795.78;5031701;28;20249;-42
2023/06/18 01:01:20;;;;;;;0.40;0.40;;;22.60;56.00;;;23.09;39.85;94789.88;5031444;28;20217;-41
2023/06/18 01:03:49;;;;;;;0.40;0.40;;;22.60;56.00;;;23.07;39.92;94797.38;5030946;28;20211;-41
2023/06/18 01:06:19;;;;;;;0.35;0.35;;;22.60;56.10;;;23.05;39.95;94796.88;5047055;28;20287;-42
2023/06/18 01:08:48;;;;;;;0.30;0.30;;;22.60;56.10;;;23.04;40.32;94798.72;5047190;28;20271;-41
2023/06/18 01:11:20;;;;;;;0.40;0.40;;;22.60;56.20;;;23.04;40.19;94796.06;5031527;28;20204;-42
2023/06/18 01:13:47;;;;;;;0.30;0.30;;;22.50;56.20;;;23.01;40.18;94796.63;5031014;28;20203;-41
2023/06/18 01:16:16;;;;;;;0.28;0.28;;;22.50;56.20;;;23.00;40.10;94795.00;5047340;28;20202;-44
2023/06/18 01:18:50;;;;;;;0.30;0.30;;;22.50;56.30;;;22.99;40.29;94794.19;5031971;28;20199;-43
2023/06/18 01:21:21;;;;;;;0.30;0.30;;;22.50;56.50;;;22.98;40.42;94786.44;5031363;28;20205;-41
2023/06/18 01:24:14;;;;;;;0.35;0.35;;;22.50;56.50;;;22.95;40.42;94784.31;5046656;28;20227;-47
2023/06/18 01:26:42;;;;;;;0.30;0.30;;;22.50;56.60;;;22.93;40.49;94784.59;5047108;28;20197;-42
2023/06/18 01:29:12;;;;;;;0.30;0.30;;;22.50;56.50;;;22.94;40.33;94785.41;5031319;28;20291;-41
2023/06/18 01:31:44;;;;;;;0.30;0.30;;;22.50;56.60;;;22.92;40.60;94782.97;5031407;28;20194;-42
2023/06/18 01:34:12;;;;;;;0.30;0.30;;;22.50;56.70;;;22.91;40.59;94783.28;5031588;28;20283;-42
2023/06/18 01:36:49;;;;;;;0.30;0.30;;;22.50;56.70;;;22.89;40.63;94780.06;5030335;28;20206;-41
2023/06/18 01:39:32;;;;;;;0.30;0.30;;;22.40;56.70;;;22.87;40.54;94777.66;5030268;28;20625;-44
2023/06/18 01:42:14;;;;;;;0.40;0.40;;;22.40;56.60;;;22.85;40.31;94774.44;5046636;28;20227;-42
2023/06/18 01:44:51;;;;;;;0.30;0.30;;;22.40;56.80;;;22.83;40.57;94781.97;5015502;28;20178;-41
2023/06/18 01:47:20;;;;;;;0.30;0.30;;;22.40;56.90;;;22.83;40.38;94785.44;5033621;28;20211;-41
2023/06/18 01:49:48;;;;;;;0.30;0.30;;;22.40;56.70;;;22.82;40.64;94778.47;5034452;28;20193;-40
2023/06/18 01:52:17;;;;;;;0.40;0.40;;;22.40;56.70;;;22.80;40.75;94779.81;5034478;28;20216;-41
2023/06/18 01:54:49;;;;;;;0.30;0.30;;;22.40;56.80;;;22.80;40.50;94777.16;5034079;28;20264;-41
2023/06/18 01:57:16;;;;;;;0.40;0.40;;;22.40;56.90;;;22.80;40.86;94780.63;5033517;28;20200;-40
2023/06/18 01:59:45;;;;;;;0.40;0.40;;;22.40;56.80;;;22.77;40.81;94775.81;5033278;28;20200;-42
2023/06/18 02:02:12;;;;;;;0.30;0.30;;;22.40;56.90;;;22.75;40.56;94779.84;5016811;28;20369;-40
2023/06/18 02:04:43;;;;;;;0.40;0.40;;;22.30;56.70;;;22.73;40.84;94782.81;5034512;28;20289;-40
2023/06/18 02:07:12;;;;;;;0.30;0.30;;;22.30;56.80;;;22.74;40.87;94783.59;5034479;28;20187;-41
2023/06/18 02:09:42;;;;;;;0.30;0.30;;;22.30;56.80;;;22.71;40.93;94784.94;5034467;28;20189;-41
2023/06/18 02:12:11;;;;;;;0.32;0.32;;;22.30;56.80;;;22.70;40.58;94780.66;5034183;28;20261;-41
2023/06/18 02:14:38;;;;;;;0.40;0.40;;;22.30;56.90;;;22.70;40.47;94777.97;5033171;28;20708;-41
2023/06/18 02:17:06;;;;;;;0.30;0.30;;;22.30;56.90;;;22.68;40.75;94788.97;5033095;28;20304;-42
2023/06/18 02:19:33;;;;;;;0.30;0.30;;;22.30;56.90;;;22.67;40.98;94781.22;5033103;28;20208;-40
2023/06/18 02:22:00;;;;;;;0.38;0.38;;;22.20;56.90;;;22.67;40.89;94773.19;5033590;28;20233;-41
2023/06/18 02:24:27;;;;;;;0.30;0.30;;;22.20;57.00;;;22.65;40.88;94780.69;5033038;28;20260;-42
2023/06/18 02:26:55;;;;;;;0.30;0.30;;;22.20;56.90;;;22.63;40.98;94785.47;5034182;28;20188;-41
2023/06/18 02:29:22;;;;;;;0.40;0.40;;;22.20;56.90;;;22.62;40.63;94775.84;5033709;28;20194;-41
2023/06/18 02:31:49;;;;;;;0.30;0.30;;;22.20;57.00;;;22.60;40.63;94773.47;5033779;28;20244;-40
2023/06/18 02:34:18;;;;;;;0.40;0.40;;;22.20;56.90;;;22.58;41.27;94780.16;5034044;28;20193;-40
2023/06/18 02:36:47;;;;;;;0.30;0.30;;;22.20;57.00;;;22.58;40.75;94783.63;5034269;28;20293;-41
2023/06/18 02:39:15;;;;;;;0.30;0.30;;;22.20;57.00;;;22.55;40.69;94778.81;5033537;28;20532;-41
2023/06/18 02:41:42;;;;;;;0.32;0.32;;;22.20;57.00;;;22.54;41.20;94783.38;5033857;28;20230;-40
2023/06/18 02:44:09;;;;;;;0.40;0.40;;;22.20;57.00;;;22.53;41.08;94783.63;5032699;28;20205;-40
2023/06/18 02:46:37;;;;;;;0.30;0.30;;;22.10;56.90;;;22.51;40.88;94783.13;5033880;28;20196;-40
2023/06/18 02:49:04;;;;;;;0.30;0.30;;;22.10;56.90;;;22.50;41.06;94778.84;5033935;28;20200;-41
2023/06/18 02:51:31;;;;;;;0.40;0.40;;;22.10;56.90;;;22.48;41.04;94778.31;5049121;28;20644;-41
2023/06/18 02:54:00;;;;;;;0.40;0.40;;;22.10;56.90;;;22.48;41.03;94778.31;5033718;28;20217;-41
2023/06/18 02:56:28;;;;;;;0.32;0.32;;;22.10;56.90;;;22.46;40.90;94777.75;5033313;28;20196;-41
2023/06/18 02:58:56;;;;;;;0.30;0.30;;;22.10;56.90;;;22.45;41.03;94784.19;5033300;28;20556;-42
2023/06/18 03:01:25;;;;;;;0.30;0.30;;;22.00;56.80;;;22.44;40.96;94777.25;5032312;28;20794;-41
2023/06/18 03:03:53;;;;;;;0.45;0.45;;;22.00;56.80;;;22.43;40.90;94781.00;5032393;28;20216;-42
2023/06/18 03:06:23;;;;;;;0.38;0.38;;;22.00;56.90;;;22.42;41.30;94792.75;5032685;28;20220;-42
2023/06/18 03:08:50;;;;;;;0.30;0.30;;;22.00;57.00;;;22.39;41.27;94789.53;5032253;28;20201;-45
2023/06/18 03:11:17;;;;;;;0.38;0.38;;;22.00;56.90;;;22.37;41.11;94788.19;5032172;28;20218;-41
2023/06/18 03:13:45;;;;;;;0.40;0.40;;;22.00;57.00;;;22.36;41.25;94806.09;5033219;28;20627;-41
2023/06/18 03:16:14;;;;;;;0.45;0.45;;;22.00;56.90;;;22.34;40.99;94794.88;5033382;28;20238;-41
2023/06/18 03:18:41;;;;;;;0.30;0.30;;;22.00;56.90;;;22.34;41.21;94802.09;5032291;28;20201;-43
2023/06/18 03:21:08;;;;;;;0.40;0.40;;;22.00;56.90;;;22.33;41.12;94809.28;5032839;28;20269;-43
2023/06/18 03:23:36;;;;;;;0.32;0.32;;;22.00;57.00;;;22.31;41.19;94807.97;5032006;28;20234;-41
2023/06/18 03:26:06;;;;;;;0.40;0.40;;;21.90;56.90;;;22.29;41.01;94808.22;5048652;28;20197;-44
2023/06/18 03:28:36;;;;;;;0.30;0.30;;;21.90;56.90;;;22.28;41.13;94803.16;5048174;28;20524;-41
2023/06/18 03:31:04;;;;;;;0.40;0.40;;;21.90;56.90;;;22.26;41.28;94800.75;5048303;28;20519;-43
2023/06/18 03:33:32;;;;;;;0.35;0.35;;;21.90;56.90;;;22.26;40.91;94815.97;5032158;28;20539;-41
2023/06/18 03:36:00;;;;;;;0.40;0.40;;;21.90;57.00;;;22.24;40.99;94800.22;5032828;28;20200;-40
2023/06/18 03:38:30;;;;;;;0.40;0.40;;;21.90;57.10;;;22.24;41.06;94810.91;5031889;28;20237;-40
2023/06/18 03:41:01;;;;;;;0.40;0.40;;;21.90;57.10;;;22.25;41.28;94817.06;5032480;28;20219;-41
2023/06/18 03:43:30;;;;;;;0.40;0.40;;;21.90;57.20;;;22.23;41.46;94809.31;5032685;28;20255;-40
2023/06/18 03:45:59;;;;;;;0.40;0.40;;;21.80;57.20;;;22.22;41.50;94823.72;5048331;28;20623;-40
2023/06/18 03:48:27;;;;;;;0.40;0.40;;;21.80;57.20;;;22.22;41.52;94816.50;5031739;28;20196;-40
2023/06/18 03:50:54;;;;;;;0.40;0.40;;;21.80;57.10;;;22.21;41.41;94820.25;5048082;28;20232;-40
2023/06/18 03:53:21;;;;;;;0.30;0.30;;;21.80;57.30;;;22.20;41.08;94816.00;5031645;28;20569;-40
2023/06/18 03:55:49;;;;;;;0.30;0.30;;;21.80;57.20;;;22.19;41.11;94811.72;5031599;28;20212;-41
2023/06/18 03:58:18;;;;;;;0.40;0.40;;;21.80;57.30;;;22.19;41.17;94816.25;5031820;28;20211;-40
2023/06/18 04:00:47;;;;;;;0.40;0.40;;;21.80;57.30;;;22.19;41.25;94818.91;5031309;28;20224;-42
2023/06/18 04:03:15;;;;;;;0.30;0.30;;;21.80;57.30;;;22.18;41.30;94822.66;5031751;28;20212;-41
2023/06/18 04:05:42;;;;;;;0.30;0.30;;;21.80;57.40;;;22.17;41.49;94821.84;5032596;28;20189;-40
2023/06/18 04:08:09;;;;;;;0.50;0.50;;;21.80;57.40;;;22.18;41.20;94822.66;5031825;28;20536;-41
2023/06/18 04:10:37;;;;;;;0.30;0.30;;;21.80;57.50;;;22.16;41.57;94824.81;5032145;28;20193;-41
2023/06/18 04:13:04;;;;;;;0.40;0.40;;;21.80;58.70;;;22.14;41.78;94830.41;5032861;28;20548;-41
2023/06/18 04:15:32;;;;;;;0.30;0.30;;;21.80;57.50;;;22.14;41.62;94830.41;5047896;28;20199;-41
2023/06/18 04:17:59;;;;;;;0.35;0.35;;;21.80;57.50;;;22.14;41.90;94830.41;5032459;28;20231;-41
2023/06/18 04:20:27;;;;;;;0.40;0.40;;;21.80;57.60;;;22.13;41.76;94826.13;5031025;28;20203;-41
2023/06/18 04:22:54;;;;;;;0.40;0.40;;;21.80;57.70;;;22.13;41.63;94820.81;5032004;28;20232;-40
2023/06/18 04:25:22;;;;;;;0.40;0.40;;;21.80;57.70;;;22.13;41.71;94826.13;5031157;28;20209;-41
2023/06/18 04:27:53;;;;;;;0.40;0.40;;;21.80;57.80;;;22.13;42.11;94823.47;5047740;28;20284;-41
2023/06/18 04:30:20;;;;;;;0.30;0.30;;;21.80;57.80;;;22.13;41.90;94820.81;5030992;28;20208;-41
2023/06/18 04:32:49;;;;;;;0.38;0.38;;;21.80;57.80;;;22.13;42.01;94828.81;5047358;28;20524;-40
2023/06/18 04:35:19;;;;;;;0.40;0.40;;;21.80;57.80;;;22.13;41.63;94830.66;5047632;28;20212;-41
2023/06/18 04:37:47;;;;;;;0.40;0.40;;;21.80;58.00;;;22.13;41.69;94825.31;5047619;28;20532;-41
2023/06/18 04:40:15;;;;;;;0.40;0.40;;;21.80;58.00;;;22.13;42.30;94822.66;5030886;28;20223;-41
2023/06/18 04:42:46;;;;;;;0.38;0.38;;;21.80;58.00;;;22.13;42.20;94822.66;5030915;28;20228;-41
2023/06/18 04:45:20;;;;;;;0.35;0.35;;;21.80;58.10;;;22.13;42.09;94820.81;5031233;28;20197;-41
2023/06/18 04:47:47;;;;;;;0.40;0.40;;;21.80;58.10;;;22.13;42.49;94825.31;5031864;28;20218;-42
2023/06/18 04:50:14;;;;;;;0.30;0.30;;;21.80;58.20;;;22.13;42.03;94820.81;5047545;28;20315;-41
2023/06/18 04:52:46;;;;;;;0.40;0.40;;;21.80;58.30;;;22.14;42.31;94819.72;5047395;28;20642;-40
2023/06/18 04:55:13;;;;;;;0.40;0.40;;;21.80;58.40;;;22.13;42.30;94817.31;5031074;28;20233;-41
2023/06/18 04:57:41;;;;;;;0.40;0.40;;;21.80;58.40;;;22.12;42.22;94821.88;5030808;28;20206;-42
2023/06/18 05:00:09;;;;;;;0.50;0.50;;;21.80;58.50;;;22.13;42.75;94820.81;5030617;28;20299;-41
2023/06/18 05:02:40;;;;;;;0.30;0.30;;;21.80;58.60;;;22.12;42.80;94824.53;5030975;28;20221;-42
2023/06/18 05:05:08;;;;;;;0.40;0.40;;;21.80;58.70;;;22.13;42.83;94828.00;5031808;28;20210;-41
2023/06/18 05:07:36;;;;;;;0.30;0.30;;;21.80;58.80;;;22.14;42.65;94829.59;5047232;28;20206;-41
2023/06/18 05:10:04;;;;;;;0.30;0.30;;;21.80;58.80;;;22.15;42.79;94828.53;5047058;28;20257;-43
2023/06/18 05:12:34;;;;;;;0.30;0.30;;;21.80;58.90;;;22.14;43.38;94833.09;5047169;28;20296;-41
2023/06/18 05:15:02;;;;;;;0.40;0.40;;;21.90;59.10;;;22.16;43.26;94822.13;5046921;28;20192;-42
2023/06/18 05:17:29;;;;;;;0.30;0.30;;;21.90;59.10;;;22.16;43.05;94830.16;5047337;28;20547;-41
2023/06/18 05:19:57;;;;;;;0.30;0.30;;;21.90;59.20;;;22.17;42.79;94832.53;5033224;28;20533;-42
2023/06/18 05:22:24;;;;;;;0.40;0.40;;;21.90;59.20;;;22.18;43.31;94825.31;5050816;28;20240;-43
2023/06/18 05:24:53;;;;;;;0.40;0.40;;;21.90;59.20;;;22.18;43.07;94838.66;5050541;28;20521;-40
2023/06/18 05:27:20;;;;;;;0.38;0.38;;;21.90;59.30;;;22.18;43.13;94828.81;5050504;28;20663;-40
2023/06/18 05:29:47;;;;;;;0.30;0.30;;;21.90;59.30;;;22.20;43.18;94833.88;5050070;28;20208;-40
2023/06/18 05:32:14;;;;;;;0.40;0.40;;;21.90;59.30;;;22.19;43.38;94835.75;5033829;28;20205;-41
2023/06/18 05:34:42;;;;;;;0.30;0.30;;;21.90;59.30;;;22.21;43.05;94846.16;5034599;28;20205;-40
2023/06/18 05:37:10;;;;;;;0.30;0.30;;;22.00;59.40;;;22.21;43.65;94841.63;5034910;28;20206;-41
2023/06/18 05:39:37;;;;;;;0.40;0.40;;;22.00;59.20;;;22.22;43.25;94843.22;5033580;28;20692;-40
2023/06/18 05:42:06;;;;;;;0.35;0.35;;;22.00;59.20;;;22.22;43.11;94842.44;5033890;28;20597;-40
2023/06/18 05:44:34;;;;;;;0.40;0.40;;;22.00;59.10;;;22.23;43.10;94844.03;5050224;28;20212;-40
2023/06/18 05:47:02;;;;;;;0.40;0.40;;;22.00;59.20;;;22.25;43.05;94846.44;5034468;28;20196;-41
2023/06/18 05:49:29;;;;;;;0.30;0.30;;;22.00;59.10;;;22.25;43.41;94841.09;5049985;28;20225;-41
2023/06/18 05:51:59;;;;;;;0.40;0.40;;;22.00;59.10;;;22.26;43.18;94846.16;5033527;28;20287;-40
2023/06/18 05:54:27;;;;;;;0.32;0.32;;;22.00;59.10;;;22.26;43.03;94846.16;5033464;28;20230;-42
2023/06/18 05:56:54;;;;;;;0.40;0.40;;;22.00;58.90;;;22.28;43.29;94843.25;5033446;28;20291;-41
2023/06/18 05:59:22;;;;;;;0.40;0.40;;;22.10;59.10;;;22.29;43.03;94845.63;5033560;28;20217;-41
2023/06/18 06:01:56;;;;;;;0.35;0.35;;;22.10;59.10;;;22.29;42.99;94840.28;5033355;28;20675;-41
2023/06/18 06:04:24;;;;;;;0.30;0.30;;;22.10;59.00;;;22.31;42.79;94840.81;5034200;28;20201;-41
2023/06/18 06:06:51;;;;;;;0.30;0.30;;;22.10;59.00;;;22.33;42.83;94846.69;5034099;28;20237;-41
2023/06/18 06:09:18;;;;;;;0.40;0.40;;;22.10;59.00;;;22.34;43.26;94844.84;5033075;28;20210;-42
2023/06/18 06:11:46;;;;;;;0.40;0.40;;;22.10;59.00;;;22.36;43.39;94845.34;5033224;28;20219;-40
2023/06/18 06:14:13;;;;;;;0.30;0.30;;;22.20;59.20;;;22.36;43.44;94838.16;5033154;28;20754;-41
2023/06/18 06:16:40;;;;;;;0.38;0.38;;;22.20;59.30;;;22.38;42.86;94837.91;5033148;28;20255;-41
2023/06/18 06:19:08;;;;;;;0.30;0.30;;;22.20;59.20;;;22.40;43.08;94843.81;5033941;28;20197;-43
2023/06/18 06:21:38;;;;;;;0.30;0.30;;;22.20;59.20;;;22.42;43.50;94846.19;5033913;28;20301;-41
2023/06/18 06:24:07;;;;;;;0.40;0.40;;;22.20;59.20;;;22.44;43.27;94849.41;5033129;28;20229;-41
2023/06/18 06:26:34;;;;;;;0.32;0.32;;;22.20;59.20;;;22.45;43.04;94854.47;5033765;28;20217;-42
2023/06/18 06:29:02;;;;;;;0.30;0.30;;;22.20;59.20;;;22.47;43.41;94856.88;5033993;28;20220;-41
2023/06/18 06:31:29;;;;;;;0.30;0.30;;;22.20;59.20;;;22.48;43.22;94853.13;5032473;28;20204;-40
2023/06/18 06:33:57;;;;;;;0.30;0.30;;;22.20;59.20;;;22.50;43.34;94857.16;5034020;28;20209;-41
2023/06/18 06:36:26;;;;;;;0.40;0.40;;;22.30;59.30;;;22.51;43.13;94852.63;5032853;28;20310;-40
2023/06/18 06:38:54;;;;;;;0.30;0.30;;;22.30;59.40;;;22.53;43.08;94855.81;5033431;28;20217;-41
2023/06/18 06:41:22;;;;;;;0.40;0.40;;;22.30;59.40;;;22.55;43.35;94854.47;5033071;28;20225;-45
2023/06/18 06:43:50;;;;;;;0.30;0.30;;;22.40;59.50;;;22.57;43.20;94861.41;5049320;28;20512;-41
2023/06/18 06:46:34;;;;;;;0.50;0.50;;;22.30;59.30;;;22.59;43.33;94859.28;5033657;28;20208;-43
2023/06/18 06:49:34;;;;;;;0.50;0.50;;;22.30;59.30;;;22.60;43.26;94864.34;5067446;28;20200;-41
2023/06/18 06:52:08;;;;;;;0.30;0.30;;;22.40;59.50;;;22.62;43.23;94864.06;5032725;28;20223;-41
2023/06/18 06:54:36;;;;;;;0.40;0.40;;;22.40;59.40;;;22.64;43.36;94862.75;5033721;28;20218;-42
2023/06/18 06:57:04;;;;;;;0.38;0.38;;;22.40;59.50;;;22.67;43.56;94862.19;5032525;28;20204;-42
2023/06/18 06:59:31;;;;;;;0.40;0.40;;;22.50;59.50;;;22.69;42.98;94865.41;5048755;28;20214;-43
2023/06/18 07:01:59;;;;;;;0.40;0.40;;;22.50;59.50;;;22.72;43.45;94869.44;5032325;28;20289;-41
2023/06/18 07:04:27;;;;;;;0.32;0.32;;;22.50;59.50;;;22.74;43.59;94872.63;5032625;28;20214;-41
2023/06/18 07:06:57;;;;;;;0.30;0.30;;;22.50;59.50;;;22.76;43.77;94870.47;5033288;28;20214;-42
2023/06/18 07:09:24;;;;;;;0.30;0.30;;;22.50;59.60;;;22.80;43.38;94876.09;5033122;28;20196;-41
2023/06/18 07:11:51;;;;;;;0.40;0.40;;;22.50;59.50;;;22.81;43.62;94877.69;5033508;28;20282;-41
2023/06/18 07:14:18;;;;;;;0.30;0.30;;;22.60;59.60;;;22.83;43.18;94881.69;5033019;28;20221;-41
2023/06/18 07:16:45;;;;;;;0.32;0.32;;;22.60;59.60;;;22.85;43.50;94865.38;5033661;28;20301;-40
2023/06/18 07:19:12;;;;;;;0.30;0.30;;;22.60;59.60;;;22.90;43.53;94872.59;5048649;28;20196;-40
2023/06/18 07:21:40;;;;;;;0.30;0.30;;;22.60;59.60;;;22.91;43.28;94860.81;5033017;28;20241;-41
2023/06/18 07:24:07;;;;;;;0.32;0.32;;;22.70;59.70;;;22.95;43.26;94875.25;5033125;28;20228;-40
2023/06/18 07:26:34;;;;;;;0.30;0.30;;;22.70;59.70;;;22.96;43.64;94874.19;5033118;28;20594;-40
2023/06/18 07:29:01;;;;;;;0.30;0.30;;;22.70;59.80;;;22.99;43.47;94876.31;5033224;28;20192;-40
2023/06/18 07:31:28;;;;;;;0.40;0.40;;;22.70;59.70;;;23.02;43.43;94875.78;5032948;28;20681;-40
2023/06/18 07:33:55;;;;;;;0.35;0.35;;;22.80;59.90;;;23.04;43.46;94876.31;5048506;28;20281;-41
2023/06/18 07:36:23;;;;;;;0.30;0.30;;;22.80;59.90;;;23.07;43.30;94878.47;5032716;28;20200;-41
2023/06/18 07:38:50;;;;;;;0.30;0.30;;;22.80;59.90;;;23.09;43.72;94878.19;5032820;28;20207;-40
2023/06/18 07:41:17;;;;;;;0.30;0.30;;;22.90;59.90;;;23.13;43.66;94874.69;5032747;28;20192;-42
2023/06/18 07:43:44;;;;;;;0.30;0.30;;;22.90;59.90;;;23.14;43.63;94873.63;5031043;28;20309;-40
2023/06/18 07:46:12;;;;;;;0.30;0.30;;;22.90;59.80;;;23.17;43.61;94873.09;5032593;28;20538;-41
2023/06/18 07:48:40;;;;;;;0.30;0.30;;;22.90;59.80;;;23.20;43.46;94876.31;5032658;28;20203;-40
2023/06/18 07:51:07;;;;;;;0.30;0.30;;;22.90;59.80;;;23.21;43.46;94878.69;5032638;28;20250;-41
2023/06/18 07:53:34;;;;;;;0.30;0.30;;;22.90;59.70;;;23.25;43.27;94881.63;5033185;28;20288;-41
2023/06/18 07:56:01;;;;;;;0.30;0.30;;;23.00;59.70;;;23.26;43.28;94878.69;5032396;28;20234;-41
2023/06/18 07:58:28;;;;;;;0.30;0.30;;;23.00;59.60;;;23.29;43.16;94885.34;5032520;28;20220;-40
2023/06/18 08:00:56;;;;;;;0.25;0.25;;;23.00;59.70;;;23.32;43.35;94890.97;5048369;28;20197;-42
2023/06/18 08:03:23;;;;;;;0.30;0.30;;;23.10;59.70;;;23.35;43.10;94884.25;5032401;28;20731;-41
2023/06/18 08:05:50;;;;;;;0.30;0.30;;;23.00;59.50;;;23.37;43.13;94884.00;5032459;28;20271;-41
2023/06/18 08:08:17;;;;;;;0.30;0.30;;;23.10;59.50;;;23.40;42.99;94888.78;5031656;28;20245;-40
2023/06/18 08:10:44;;;;;;;0.30;0.30;;;23.10;59.50;;;23.42;43.42;94883.97;5032086;28;20197;-42
2023/06/18 08:13:11;;;;;;;0.30;0.30;;;23.20;59.60;;;23.44;43.45;94889.88;5032775;28;20194;-41
2023/06/18 08:15:38;;;;;;;0.40;0.40;;;23.20;59.40;;;23.47;42.86;94890.13;5048127;28;20258;-41
2023/06/18 08:18:05;;;;;;;0.30;0.30;;;23.20;59.50;;;23.49;43.06;94884.50;5032417;28;20658;-41
2023/06/18 08:20:32;;;;;;;0.30;0.30;;;23.20;59.40;;;23.52;42.96;94883.13;5032452;28;20585;-45
2023/06/18 08:23:00;;;;;;;0.40;0.40;;;23.20;59.30;;;23.53;43.23;94877.50;5032224;28;20232;-42
2023/06/18 08:25:27;;;;;;;0.30;0.30;;;23.30;59.40;;;23.56;42.81;94876.97;5032025;28;20275;-41
2023/06/18 08:27:56;;;;;;;0.30;0.30;;;23.30;59.30;;;23.58;42.74;94879.34;5047730;28;20199;-40
2023/06/18 08:30:23;;;;;;;0.30;0.30;;;23.30;59.30;;;23.60;43.11;94880.69;5032115;28;20200;-42
2023/06/18 08:32:51;;;;;;;0.30;0.30;;;23.30;59.20;;;23.62;42.80;94877.72;5032252;28;20189;-43
2023/06/18 08:35:19;;;;;;;0.30;0.30;;;23.40;59.20;;;23.65;42.88;94875.28;5031839;28;20203;-42
2023/06/18 08:37:46;;;;;;;0.25;0.25;;;23.40;59.20;;;23.67;42.66;94875.84;5031981;28;20201;-40
2023/06/18 08:40:14;;;;;;;0.30;0.30;;;23.40;59.10;;;23.71;42.81;94875.28;5031050;28;20685;-41
2023/06/18 08:42:42;;;;;;;0.38;0.38;;;23.40;59.10;;;23.72;42.87;94875.00;5047822;28;20229;-41
2023/06/18 08:45:25;;;;;;;0.50;0.50;;;23.40;59.00;;;23.75;42.71;94877.13;5032309;28;20193;-41
2023/06/18 08:47:58;;;;;;;0.25;0.25;;;23.40;59.10;;;23.78;42.83;94870.44;5032118;28;20189;-42
2023/06/18 08:50:29;;;;;;;0.40;0.40;;;23.40;58.90;;;23.80;42.87;94874.44;5031638;28;20215;-41
2023/06/18 08:53:04;;;;;;;0.30;0.30;;;23.50;59.10;;;23.82;42.82;94869.59;5048052;28;20196;-43
2023/06/18 08:55:31;;;;;;;0.30;0.30;;;23.50;59.00;;;23.85;42.53;94868.22;5050910;28;20232;-43
2023/06/18 08:58:12;;;;;;;0.30;0.30;;;23.60;59.10;;;23.88;42.69;94866.91;5034450;28;20203;-41
2023/06/18 09:00:40;;;;;;;0.30;0.30;;;23.60;58.90;;;23.90;42.60;94868.22;5034562;28;20286;-45
2023/06/18 09:03:08;;;;;;;0.40;0.40;;;23.60;59.00;;;23.93;42.85;94870.34;5050722;28;20232;-42
2023/06/18 09:05:35;;;;;;;0.20;0.20;;;23.60;58.90;;;23.96;42.79;94874.34;5050687;28;20197;-40
2023/06/18 09:08:03;;;;;;;0.20;0.20;;;23.60;58.90;;;23.97;42.77;94866.06;5034187;28;20711;-40
2023/06/18 09:10:31;;;;;;;0.40;0.40;;;23.70;59.00;;;24.01;42.43;94877.03;5035105;28;20756;-40
2023/06/18 09:12:58;;;;;;;0.38;0.38;;;23.70;59.00;;;24.05;42.63;94869.22;5035058;28;20225;-41
2023/06/18 09:15:25;;;;;;;0.30;0.30;;;23.70;59.00;;;24.06;42.24;94874.31;5035004;28;20210;-41
2023/06/18 09:17:54;;;;;;;0.30;0.30;;;23.80;59.00;;;24.09;42.34;94879.09;5034923;28;20694;-41
2023/06/18 09:20:21;;;;;;;0.40;0.40;;;23.80;58.90;;;24.12;42.59;94873.19;5034808;28;20387;-41
2023/06/18 09:22:50;;;;;;;0.20;0.20;;;23.80;58.80;;;24.14;42.56;94863.00;5050499;28;20271;-40
2023/06/18 09:25:21;;;;;;;0.25;0.25;;;23.80;58.80;;;24.18;42.37;94878.50;5045652;28;20508;-41
2023/06/18 09:27:49;;;;;;;0.30;0.30;;;23.90;58.80;;;24.21;42.50;94872.59;5032567;28;20206;-41
2023/06/18 09:30:24;;;;;;;0.40;0.40;;;23.90;58.80;;;24.23;42.20;94881.16;5032811;28;20197;-41
2023/06/18 09:32:53;;;;;;;0.30;0.30;;;23.90;58.60;;;24.26;42.37;94872.56;5033257;28;20205;-41
2023/06/18 09:35:20;;;;;;;0.40;0.40;;;24.00;58.70;;;24.29;42.25;94866.63;5034485;28;20218;-41
2023/06/18 09:37:48;;;;;;;0.30;0.30;;;24.00;58.70;;;24.33;42.18;94877.59;5081610;27;20291;-42
2023/06/18 09:40:21;;;;;;;0.30;0.30;;;24.00;58.60;;;24.35;42.00;94878.13;5108842;27;20283;-41
2023/06/18 09:42:50;;;;;;;0.30;0.30;;;24.00;58.60;;;24.37;42.21;94863.34;5034555;28;20222;-40
2023/06/18 09:45:18;;;;;;;0.22;0.22;;;24.00;58.40;;;24.41;42.05;94864.41;5034392;28;20228;-42
2023/06/18 09:47:49;;;;;;;0.40;0.40;;;24.10;58.50;;;24.44;42.10;94866.50;5034528;28;20187;-41
2023/06/18 09:50:17;;;;;;;0.20;0.20;;;24.10;58.60;;;24.46;41.94;94861.69;5034516;28;20258;-41
2023/06/18 09:52:51;;;;;;;0.40;0.40;;;24.10;58.40;;;24.49;41.93;94862.22;5025188;28;20205;-41
2023/06/18 09:55:32;;;;;;;0.30;0.30;;;24.10;59.50;;;24.51;41.94;94855.47;5033495;28;20204;-41
2023/06/18 09:58:00;;;;;;;0.30;0.30;;;24.20;58.20;;;24.54;41.71;94854.13;5019181;28;20214;-41
2023/06/18 10:00:28;;;;;;;0.30;0.30;;;24.20;58.30;;;24.57;41.60;94854.34;5013670;28;20273;-41
2023/06/18 10:03:07;;;;;;;0.30;0.30;;;24.20;58.20;;;24.59;41.87;94865.56;5013643;28;20222;-41
2023/06/18 10:05:35;;;;;;;0.30;0.30;;;24.30;58.20;;;24.63;41.75;94863.13;5013946;28;20199;-42
2023/06/18 10:08:04;;;;;;;0.20;0.20;;;24.30;58.20;;;24.66;41.64;94862.59;5014862;28;20207;-41
2023/06/18 10:10:36;;;;;;;0.30;0.30;;;24.40;58.20;;;24.69;41.70;94869.28;5013892;28;20176;-41
2023/06/18 10:13:11;;;;;;;0.30;0.30;;;24.40;58.10;;;24.70;41.61;94866.31;5032927;28;20304;-40
2023/06/18 10:15:39;;;;;;;0.28;0.28;;;24.40;58.10;;;24.74;41.57;94867.38;5049689;28;20189;-41
2023/06/18 10:18:10;;;;;;;0.30;0.30;;;24.40;58.00;;;24.77;41.59;94860.63;5034043;28;20258;-43
2023/06/18 10:20:38;;;;;;;0.20;0.20;;;24.40;57.90;;;24.80;41.54;94864.63;5049919;28;20206;-42
2023/06/18 10:23:06;;;;;;;0.20;0.20;;;24.40;57.80;;;24.82;41.39;94871.31;5033007;28;20239;-41
2023/06/18 10:25:34;;;;;;;0.38;0.38;;;24.50;57.80;;;24.85;41.58;94867.25;5033369;28;20230;-42
2023/06/18 10:28:02;;;;;;;0.32;0.32;;;24.50;57.80;;;24.86;41.09;94866.19;5049616;28;20301;-44